sensor_id;sensor_type;location;lat;lon;timestamp;pressure;altitude;pressure_sealevel;temperature;humidity
69855;BME280;57146;48.140;16.304;2023-04-22T00:00:15;99140.47;;;8.11;76.02
69855;BME280;57146;48.140;16.304;2023-04-22T00:02:42;99140.03;;;8.04;76.39
69855;BME280;57146;48.140;16.304;2023-04-22T00:05:10;99139.31;;;7.99;76.65
69855;BME280;57146;48.140;16.304;2023-04-22T00:07:37;99143.28;;;7.96;76.41
69855;BME280;57146;48.140;16.304;2023-04-22T00:10:06;99144.66;;;7.94;76.82
69855;BME280;57146;48.140;16.304;2023-04-22T00:12:33;99141.22;;;7.93;76.86
69855;BME280;57146;48.140;16.304;2023-04-22T00:15:00;99142.03;;;7.94;76.58
69855;BME280;57146;48.140;16.304;2023-04-22T00:17:27;99144.44;;;7.90;76.99
69855;BME280;57146;48.140;16.304;2023-04-22T00:19:54;99138.34;;;7.95;76.65
69855;BME280;57146;48.140;16.304;2023-04-22T00:22:21;99143.66;;;8.08;75.75
69855;BME280;57146;48.140;16.304;2023-04-22T00:24:48;99145.44;;;8.27;75.47
69855;BME280;57146;48.140;16.304;2023-04-22T00:27:15;99134.03;;;8.36;74.85
69855;BME280;57146;48.140;16.304;2023-04-22T00:29:42;99137.06;;;8.25;74.42
69855;BME280;57146;48.140;16.304;2023-04-22T00:32:09;99143.34;;;8.10;75.15
69855;BME280;57146;48.140;16.304;2023-04-22T00:34:36;99141.09;;;8.03;75.77
69855;BME280;57146;48.140;16.304;2023-04-22T00:37:03;99136.41;;;8.00;75.86
69855;BME280;57146;48.140;16.304;2023-04-22T00:39:30;99134.16;;;7.94;75.97
69855;BME280;57146;48.140;16.304;2023-04-22T00:41:57;99133.25;;;7.84;76.16
69855;BME280;57146;48.140;16.304;2023-04-22T00:44:25;99125.75;;;7.78;76.36
69855;BME280;57146;48.140;16.304;2023-04-22T00:46:53;99136.56;;;7.71;76.42
69855;BME280;57146;48.140;16.304;2023-04-22T00:49:22;99125.31;;;7.71;76.47
69855;BME280;57146;48.140;16.304;2023-04-22T00:51:50;99126.16;;;7.66;77.05
69855;BME280;57146;48.140;16.304;2023-04-22T00:54:18;99131.28;;;7.76;76.47
69855;BME280;57146;48.140;16.304;2023-04-22T00:56:45;99127.16;;;7.70;76.70
69855;BME280;57146;48.140;16.304;2023-04-22T00:59:12;99125.97;;;7.62;77.03
69855;BME280;57146;48.140;16.304;2023-04-22T01:01:39;99124.75;;;7.55;77.14
69855;BME280;57146;48.140;16.304;2023-04-22T01:04:07;99121.19;;;7.46;77.35
69855;BME280;57146;48.140;16.304;2023-04-22T01:06:35;99124.13;;;7.44;78.21
69855;BME280;57146;48.140;16.304;2023-04-22T01:09:04;99126.16;;;7.47;77.89
69855;BME280;57146;48.140;16.304;2023-04-22T01:11:36;99125.09;;;7.48;77.59
69855;BME280;57146;48.140;16.304;2023-04-22T01:14:03;99124.38;;;7.42;78.20
69855;BME280;57146;48.140;16.304;2023-04-22T01:16:31;99125.38;;;7.47;77.92
69855;BME280;57146;48.140;16.304;2023-04-22T01:19:00;99126.81;;;7.58;77.80
69855;BME280;57146;48.140;16.304;2023-04-22T01:21:27;99123.69;;;7.56;77.64
69855;BME280;57146;48.140;16.304;2023-04-22T01:23:53;99124.81;;;7.50;77.82
69855;BME280;57146;48.140;16.304;2023-04-22T01:26:21;99121.28;;;7.40;78.38
69855;BME280;57146;48.140;16.304;2023-04-22T01:28:48;99122.44;;;7.29;78.42
69855;BME280;57146;48.140;16.304;2023-04-22T01:31:15;99125.97;;;7.19;79.13
69855;BME280;57146;48.140;16.304;2023-04-22T01:33:42;99122.63;;;7.14;79.20
69855;BME280;57146;48.140;16.304;2023-04-22T01:36:10;99122.19;;;7.07;79.38
69855;BME280;57146;48.140;16.304;2023-04-22T01:38:39;99125.16;;;7.00;79.82
69855;BME280;57146;48.140;16.304;2023-04-22T01:41:07;99134.13;;;6.94;79.94
69855;BME280;57146;48.140;16.304;2023-04-22T01:43:34;99128.16;;;6.88;80.26
69855;BME280;57146;48.140;16.304;2023-04-22T01:46:01;99120.59;;;6.87;80.36
69855;BME280;57146;48.140;16.304;2023-04-22T01:48:30;99122.47;;;6.81;80.76
69855;BME280;57146;48.140;16.304;2023-04-22T01:50:57;99126.97;;;6.76;80.93
69855;BME280;57146;48.140;16.304;2023-04-22T01:53:24;99120.41;;;6.78;80.75
69855;BME280;57146;48.140;16.304;2023-04-22T01:55:51;99125.53;;;6.88;80.26
69855;BME280;57146;48.140;16.304;2023-04-22T01:58:19;99123.09;;;6.97;79.79
69855;BME280;57146;48.140;16.304;2023-04-22T02:00:45;99115.84;;;6.89;80.23
69855;BME280;57146;48.140;16.304;2023-04-22T02:03:12;99119.75;;;6.91;80.71
69855;BME280;57146;48.140;16.304;2023-04-22T02:05:39;99124.16;;;6.96;79.63
69855;BME280;57146;48.140;16.304;2023-04-22T02:08:07;99118.97;;;6.91;79.75
69855;BME280;57146;48.140;16.304;2023-04-22T02:10:34;99118.25;;;6.85;79.78
69855;BME280;57146;48.140;16.304;2023-04-22T02:13:01;99124.81;;;6.83;79.89
69855;BME280;57146;48.140;16.304;2023-04-22T02:15:28;99122.03;;;6.74;80.19
69855;BME280;57146;48.140;16.304;2023-04-22T02:17:55;99116.06;;;6.68;80.46
69855;BME280;57146;48.140;16.304;2023-04-22T02:20:22;99114.06;;;6.60;81.13
69855;BME280;57146;48.140;16.304;2023-04-22T02:22:49;99122.22;;;6.54;81.49
69855;BME280;57146;48.140;16.304;2023-04-22T02:25:18;99121.75;;;6.46;81.90
69855;BME280;57146;48.140;16.304;2023-04-22T02:27:45;99121.81;;;6.41;81.84
69855;BME280;57146;48.140;16.304;2023-04-22T02:30:13;99123.44;;;6.37;81.96
69855;BME280;57146;48.140;16.304;2023-04-22T02:32:40;99119.47;;;6.40;82.68
69855;BME280;57146;48.140;16.304;2023-04-22T02:35:07;99118.13;;;6.47;82.22
69855;BME280;57146;48.140;16.304;2023-04-22T02:37:34;99119.91;;;6.52;81.79
69855;BME280;57146;48.140;16.304;2023-04-22T02:40:01;99125.63;;;6.54;81.42
69855;BME280;57146;48.140;16.304;2023-04-22T02:42:29;99120.22;;;6.45;81.94
69855;BME280;57146;48.140;16.304;2023-04-22T02:44:56;99120.03;;;6.37;82.09
69855;BME280;57146;48.140;16.304;2023-04-22T02:47:26;99115.91;;;6.31;82.33
69855;BME280;57146;48.140;16.304;2023-04-22T02:49:53;99122.50;;;6.23;82.64
69855;BME280;57146;48.140;16.304;2023-04-22T02:52:20;99123.31;;;6.18;82.75
69855;BME280;57146;48.140;16.304;2023-04-22T02:54:47;99114.69;;;6.18;82.55
69855;BME280;57146;48.140;16.304;2023-04-22T02:57:14;99117.06;;;6.14;83.15
69855;BME280;57146;48.140;16.304;2023-04-22T02:59:42;99118.97;;;6.09;83.03
69855;BME280;57146;48.140;16.304;2023-04-22T03:02:10;99120.53;;;6.05;83.48
69855;BME280;57146;48.140;16.304;2023-04-22T03:05:00;99116.91;;;6.00;83.70
69855;BME280;57146;48.140;16.304;2023-04-22T03:07:29;99120.59;;;5.99;83.88
69855;BME280;57146;48.140;16.304;2023-04-22T03:09:57;99121.91;;;5.97;83.88
69855;BME280;57146;48.140;16.304;2023-04-22T03:12:24;99120.13;;;5.92;83.99
69855;BME280;57146;48.140;16.304;2023-04-22T03:14:51;99114.34;;;5.90;84.22
69855;BME280;57146;48.140;16.304;2023-04-22T03:17:20;99118.28;;;5.88;84.87
69855;BME280;57146;48.140;16.304;2023-04-22T03:19:48;99115.44;;;5.84;83.95
69855;BME280;57146;48.140;16.304;2023-04-22T03:22:15;99119.31;;;5.87;84.58
69855;BME280;57146;48.140;16.304;2023-04-22T03:24:42;99120.88;;;5.98;84.13
69855;BME280;57146;48.140;16.304;2023-04-22T03:27:09;99115.66;;;5.98;83.83
69855;BME280;57146;48.140;16.304;2023-04-22T03:29:36;99121.41;;;5.90;83.98
69855;BME280;57146;48.140;16.304;2023-04-22T03:32:04;99120.16;;;5.82;84.26
69855;BME280;57146;48.140;16.304;2023-04-22T03:34:31;99117.84;;;5.75;84.77
69855;BME280;57146;48.140;16.304;2023-04-22T03:37:01;99123.31;;;5.79;84.79
69855;BME280;57146;48.140;16.304;2023-04-22T03:39:28;99125.41;;;5.77;84.56
69855;BME280;57146;48.140;16.304;2023-04-22T03:41:55;99128.53;;;5.79;84.81
69855;BME280;57146;48.140;16.304;2023-04-22T03:44:22;99124.13;;;5.74;84.67
69855;BME280;57146;48.140;16.304;2023-04-22T03:46:49;99123.88;;;5.71;84.96
69855;BME280;57146;48.140;16.304;2023-04-22T03:49:21;99132.25;;;5.68;85.06
69855;BME280;57146;48.140;16.304;2023-04-22T03:51:48;99127.06;;;5.63;85.13
69855;BME280;57146;48.140;16.304;2023-04-22T03:54:19;99135.69;;;5.58;85.40
69855;BME280;57146;48.140;16.304;2023-04-22T03:56:49;99132.34;;;5.52;86.21
69855;BME280;57146;48.140;16.304;2023-04-22T03:59:18;99132.34;;;5.47;86.23
69855;BME280;57146;48.140;16.304;2023-04-22T04:01:50;99135.25;;;5.46;86.54
69855;BME280;57146;48.140;16.304;2023-04-22T04:04:21;99133.44;;;5.41;86.72
69855;BME280;57146;48.140;16.304;2023-04-22T04:06:53;99126.88;;;5.44;86.81
69855;BME280;57146;48.140;16.304;2023-04-22T04:09:20;99127.13;;;5.47;87.01
69855;BME280;57146;48.140;16.304;2023-04-22T04:11:47;99126.84;;;5.54;86.44
69855;BME280;57146;48.140;16.304;2023-04-22T04:14:16;99133.38;;;5.57;86.45
69855;BME280;57146;48.140;16.304;2023-04-22T04:16:47;99127.59;;;5.60;86.91
69855;BME280;57146;48.140;16.304;2023-04-22T04:19:29;99135.41;;;5.65;86.28
69855;BME280;57146;48.140;16.304;2023-04-22T04:21:56;99133.56;;;5.65;86.64
69855;BME280;57146;48.140;16.304;2023-04-22T04:24:25;99137.47;;;5.68;86.96
69855;BME280;57146;48.140;16.304;2023-04-22T04:26:59;99139.00;;;5.74;86.77
69855;BME280;57146;48.140;16.304;2023-04-22T04:29:31;99141.31;;;5.81;86.76
69855;BME280;57146;48.140;16.304;2023-04-22T04:32:07;99136.34;;;5.84;86.80
69855;BME280;57146;48.140;16.304;2023-04-22T04:34:34;99139.72;;;5.85;87.17
69855;BME280;57146;48.140;16.304;2023-04-22T04:37:02;99142.59;;;5.88;87.69
69855;BME280;57146;48.140;16.304;2023-04-22T04:39:39;99138.13;;;5.89;88.02
69855;BME280;57146;48.140;16.304;2023-04-22T04:42:07;99142.03;;;5.91;88.07
69855;BME280;57146;48.140;16.304;2023-04-22T04:44:44;99142.56;;;5.93;88.22
69855;BME280;57146;48.140;16.304;2023-04-22T04:47:11;99140.47;;;5.95;88.30
69855;BME280;57146;48.140;16.304;2023-04-22T04:49:38;99153.00;;;5.98;88.37
69855;BME280;57146;48.140;16.304;2023-04-22T04:52:07;99139.88;;;6.04;88.42
69855;BME280;57146;48.140;16.304;2023-04-22T04:54:33;99142.97;;;6.11;88.10
69855;BME280;57146;48.140;16.304;2023-04-22T04:57:01;99139.28;;;6.17;88.11
69855;BME280;57146;48.140;16.304;2023-04-22T04:59:29;99150.97;;;6.24;88.03
69855;BME280;57146;48.140;16.304;2023-04-22T05:01:57;99153.00;;;6.33;87.73
69855;BME280;57146;48.140;16.304;2023-04-22T05:04:24;99145.81;;;6.48;87.34
69855;BME280;57146;48.140;16.304;2023-04-22T05:06:52;99154.63;;;6.58;86.85
69855;BME280;57146;48.140;16.304;2023-04-22T05:09:19;99154.81;;;6.66;86.73
69855;BME280;57146;48.140;16.304;2023-04-22T05:11:48;99149.19;;;6.78;86.15
69855;BME280;57146;48.140;16.304;2023-04-22T05:14:18;99149.09;;;6.88;85.67
69855;BME280;57146;48.140;16.304;2023-04-22T05:16:46;99145.84;;;6.96;85.07
69855;BME280;57146;48.140;16.304;2023-04-22T05:19:14;99156.28;;;7.02;85.08
69855;BME280;57146;48.140;16.304;2023-04-22T05:21:44;99150.44;;;7.10;84.90
69855;BME280;57146;48.140;16.304;2023-04-22T05:24:12;99149.75;;;7.23;84.20
69855;BME280;57146;48.140;16.304;2023-04-22T05:26:40;99156.22;;;7.31;83.85
69855;BME280;57146;48.140;16.304;2023-04-22T05:29:13;99154.25;;;7.41;83.17
69855;BME280;57146;48.140;16.304;2023-04-22T05:31:40;99154.41;;;7.50;82.96
69855;BME280;57146;48.140;16.304;2023-04-22T05:34:08;99149.03;;;7.60;82.96
69855;BME280;57146;48.140;16.304;2023-04-22T05:36:35;99147.13;;;7.66;83.33
69855;BME280;57146;48.140;16.304;2023-04-22T05:39:02;99148.63;;;7.72;83.23
69855;BME280;57146;48.140;16.304;2023-04-22T05:41:31;99150.53;;;7.85;82.79
69855;BME280;57146;48.140;16.304;2023-04-22T05:43:59;99151.72;;;7.93;82.78
69855;BME280;57146;48.140;16.304;2023-04-22T05:46:27;99157.31;;;8.05;82.69
69855;BME280;57146;48.140;16.304;2023-04-22T05:48:55;99159.00;;;8.15;82.18
69855;BME280;57146;48.140;16.304;2023-04-22T05:51:41;99159.34;;;8.27;82.45
69855;BME280;57146;48.140;16.304;2023-04-22T05:54:10;99162.81;;;8.42;82.34
69855;BME280;57146;48.140;16.304;2023-04-22T05:56:37;99160.78;;;8.52;82.54
69855;BME280;57146;48.140;16.304;2023-04-22T05:59:05;99149.84;;;8.78;81.12
69855;BME280;57146;48.140;16.304;2023-04-22T06:01:32;99156.41;;;8.94;81.08
69855;BME280;57146;48.140;16.304;2023-04-22T06:04:03;99155.31;;;9.09;80.63
69855;BME280;57146;48.140;16.304;2023-04-22T06:06:30;99157.66;;;9.24;79.54
69855;BME280;57146;48.140;16.304;2023-04-22T06:08:57;99160.94;;;9.44;78.19
69855;BME280;57146;48.140;16.304;2023-04-22T06:11:24;99158.31;;;9.57;77.73
69855;BME280;57146;48.140;16.304;2023-04-22T06:13:51;99157.28;;;9.67;77.30
69855;BME280;57146;48.140;16.304;2023-04-22T06:16:18;99158.75;;;9.73;76.81
69855;BME280;57146;48.140;16.304;2023-04-22T06:18:45;99165.44;;;9.79;76.36
69855;BME280;57146;48.140;16.304;2023-04-22T06:21:13;99167.38;;;9.88;75.65
69855;BME280;57146;48.140;16.304;2023-04-22T06:23:42;99162.19;;;9.96;75.57
69855;BME280;57146;48.140;16.304;2023-04-22T06:26:10;99159.94;;;10.03;75.12
69855;BME280;57146;48.140;16.304;2023-04-22T06:28:37;99165.25;;;10.12;74.18
69855;BME280;57146;48.140;16.304;2023-04-22T06:31:09;99167.63;;;10.22;74.07
69855;BME280;57146;48.140;16.304;2023-04-22T06:33:36;99164.81;;;10.33;74.27
69855;BME280;57146;48.140;16.304;2023-04-22T06:36:04;99162.22;;;10.41;73.51
69855;BME280;57146;48.140;16.304;2023-04-22T06:38:34;99170.63;;;10.52;73.45
69855;BME280;57146;48.140;16.304;2023-04-22T06:41:20;99178.88;;;10.59;72.04
69855;BME280;57146;48.140;16.304;2023-04-22T06:43:49;99179.56;;;10.73;72.15
69855;BME280;57146;48.140;16.304;2023-04-22T06:46:16;99170.16;;;10.81;71.57
69855;BME280;57146;48.140;16.304;2023-04-22T06:49:01;99164.63;;;10.91;72.58
69855;BME280;57146;48.140;16.304;2023-04-22T06:51:50;99166.53;;;10.99;71.63
69855;BME280;57146;48.140;16.304;2023-04-22T06:55:00;99170.63;;;11.14;71.25
69855;BME280;57146;48.140;16.304;2023-04-22T06:57:38;99169.84;;;11.22;70.33
69855;BME280;57146;48.140;16.304;2023-04-22T07:00:05;99157.00;;;11.30;71.05
69855;BME280;57146;48.140;16.304;2023-04-22T07:02:37;99163.84;;;11.39;69.89
69855;BME280;57146;48.140;16.304;2023-04-22T07:05:05;99162.78;;;11.49;69.80
69855;BME280;57146;48.140;16.304;2023-04-22T07:07:34;99164.66;;;11.57;69.34
69855;BME280;57146;48.140;16.304;2023-04-22T07:10:01;99158.94;;;11.64;69.91
69855;BME280;57146;48.140;16.304;2023-04-22T07:12:35;99155.38;;;11.77;69.11
69855;BME280;57146;48.140;16.304;2023-04-22T07:15:06;99163.78;;;11.88;67.62
69855;BME280;57146;48.140;16.304;2023-04-22T07:17:38;99167.81;;;11.94;66.96
69855;BME280;57146;48.140;16.304;2023-04-22T07:20:07;99154.63;;;12.03;66.47
69855;BME280;57146;48.140;16.304;2023-04-22T07:22:34;99157.88;;;12.08;67.03
69855;BME280;57146;48.140;16.304;2023-04-22T07:25:01;99159.72;;;12.16;67.16
69855;BME280;57146;48.140;16.304;2023-04-22T07:27:28;99160.31;;;12.31;65.94
69855;BME280;57146;48.140;16.304;2023-04-22T07:29:55;99158.13;;;12.41;65.55
69855;BME280;57146;48.140;16.304;2023-04-22T07:32:22;99162.00;;;12.53;65.37
69855;BME280;57146;48.140;16.304;2023-04-22T07:34:48;99156.25;;;12.59;65.41
69855;BME280;57146;48.140;16.304;2023-04-22T07:37:15;99156.53;;;12.66;65.39
69855;BME280;57146;48.140;16.304;2023-04-22T07:39:42;99150.88;;;12.77;65.85
69855;BME280;57146;48.140;16.304;2023-04-22T07:42:09;99156.44;;;12.84;65.19
69855;BME280;57146;48.140;16.304;2023-04-22T07:44:37;99156.56;;;12.96;66.81
69855;BME280;57146;48.140;16.304;2023-04-22T07:47:05;99150.34;;;13.01;64.81
69855;BME280;57146;48.140;16.304;2023-04-22T07:49:32;99145.16;;;13.13;66.09
69855;BME280;57146;48.140;16.304;2023-04-22T07:51:59;99154.91;;;13.21;65.50
69855;BME280;57146;48.140;16.304;2023-04-22T07:54:26;99153.78;;;13.31;65.87
69855;BME280;57146;48.140;16.304;2023-04-22T07:56:53;99150.94;;;13.36;65.08
69855;BME280;57146;48.140;16.304;2023-04-22T07:59:19;99139.22;;;13.46;65.54
69855;BME280;57146;48.140;16.304;2023-04-22T08:01:46;99149.75;;;13.54;64.42
69855;BME280;57146;48.140;16.304;2023-04-22T08:04:13;99145.19;;;13.63;64.96
69855;BME280;57146;48.140;16.304;2023-04-22T08:06:41;99148.34;;;13.78;65.79
69855;BME280;57146;48.140;16.304;2023-04-22T08:09:08;99142.97;;;13.86;64.65
69855;BME280;57146;48.140;16.304;2023-04-22T08:11:35;99142.25;;;13.98;64.57
69855;BME280;57146;48.140;16.304;2023-04-22T08:14:02;99136.00;;;14.03;65.21
69855;BME280;57146;48.140;16.304;2023-04-22T08:16:29;99140.41;;;14.11;65.51
69855;BME280;57146;48.140;16.304;2023-04-22T08:18:56;99137.91;;;14.14;65.30
69855;BME280;57146;48.140;16.304;2023-04-22T08:21:23;99144.31;;;14.26;66.50
69855;BME280;57146;48.140;16.304;2023-04-22T08:23:49;99136.63;;;14.33;65.12
69855;BME280;57146;48.140;16.304;2023-04-22T08:26:16;99143.38;;;14.43;64.77
69855;BME280;57146;48.140;16.304;2023-04-22T08:28:43;99141.78;;;14.50;65.27
69855;BME280;57146;48.140;16.304;2023-04-22T08:31:10;99142.78;;;14.58;64.62
69855;BME280;57146;48.140;16.304;2023-04-22T08:33:38;99141.91;;;14.66;64.43
69855;BME280;57146;48.140;16.304;2023-04-22T08:36:06;99138.28;;;14.71;63.35
69855;BME280;57146;48.140;16.304;2023-04-22T08:38:33;99141.16;;;14.78;65.33
69855;BME280;57146;48.140;16.304;2023-04-22T08:41:00;99134.41;;;14.93;63.19
69855;BME280;57146;48.140;16.304;2023-04-22T08:43:28;99143.16;;;15.05;63.19
69855;BME280;57146;48.140;16.304;2023-04-22T08:45:55;99145.25;;;15.12;62.67
69855;BME280;57146;48.140;16.304;2023-04-22T08:48:22;99135.75;;;15.23;63.03
69855;BME280;57146;48.140;16.304;2023-04-22T08:50:49;99128.66;;;15.27;62.14
69855;BME280;57146;48.140;16.304;2023-04-22T08:53:17;99141.88;;;15.40;62.24
69855;BME280;57146;48.140;16.304;2023-04-22T08:55:44;99123.88;;;15.45;61.68
69855;BME280;57146;48.140;16.304;2023-04-22T08:58:11;99122.66;;;15.55;62.33
69855;BME280;57146;48.140;16.304;2023-04-22T09:00:41;99125.81;;;15.61;61.64
69855;BME280;57146;48.140;16.304;2023-04-22T09:03:09;99130.69;;;15.71;61.78
69855;BME280;57146;48.140;16.304;2023-04-22T09:05:37;99129.09;;;15.82;61.34
69855;BME280;57146;48.140;16.304;2023-04-22T09:08:06;99117.59;;;15.90;60.87
69855;BME280;57146;48.140;16.304;2023-04-22T09:10:35;99113.66;;;16.00;60.03
69855;BME280;57146;48.140;16.304;2023-04-22T09:13:04;99114.59;;;16.08;59.92
69855;BME280;57146;48.140;16.304;2023-04-22T09:15:32;99111.47;;;16.18;59.35
69855;BME280;57146;48.140;16.304;2023-04-22T09:18:01;99098.38;;;16.25;57.47
69855;BME280;57146;48.140;16.304;2023-04-22T09:20:29;99105.16;;;16.38;58.26
69855;BME280;57146;48.140;16.304;2023-04-22T09:23:01;99106.34;;;16.57;56.06
69855;BME280;57146;48.140;16.304;2023-04-22T09:25:28;99105.84;;;16.67;55.32
69855;BME280;57146;48.140;16.304;2023-04-22T09:27:58;99092.75;;;16.74;54.44
69855;BME280;57146;48.140;16.304;2023-04-22T09:30:30;99096.41;;;16.85;54.81
69855;BME280;57146;48.140;16.304;2023-04-22T09:33:02;99100.38;;;16.91;52.94
69855;BME280;57146;48.140;16.304;2023-04-22T09:35:31;99088.34;;;16.97;52.83
69855;BME280;57146;48.140;16.304;2023-04-22T09:38:00;99088.16;;;17.06;53.06
69855;BME280;57146;48.140;16.304;2023-04-22T09:40:30;99095.94;;;17.15;52.63
69855;BME280;57146;48.140;16.304;2023-04-22T09:43:01;99087.41;;;17.25;53.15
69855;BME280;57146;48.140;16.304;2023-04-22T09:48:01;99083.03;;;17.33;52.74
69855;BME280;57146;48.140;16.304;2023-04-22T09:50:28;99083.88;;;17.37;52.42
69855;BME280;57146;48.140;16.304;2023-04-22T09:53:02;99081.28;;;17.40;53.13
69855;BME280;57146;48.140;16.304;2023-04-22T09:55:33;99070.50;;;17.53;52.11
69855;BME280;57146;48.140;16.304;2023-04-22T09:58:10;99072.88;;;17.58;52.45
69855;BME280;57146;48.140;16.304;2023-04-22T10:00:44;99072.16;;;17.61;52.21
69855;BME280;57146;48.140;16.304;2023-04-22T10:05:51;99064.44;;;17.75;52.26
69855;BME280;57146;48.140;16.304;2023-04-22T10:08:18;99065.72;;;17.81;50.89
69855;BME280;57146;48.140;16.304;2023-04-22T10:10:45;99059.72;;;17.84;51.64
69855;BME280;57146;48.140;16.304;2023-04-22T10:13:12;99062.09;;;17.89;50.56
69855;BME280;57146;48.140;16.304;2023-04-22T10:15:44;99054.13;;;17.89;51.24
69855;BME280;57146;48.140;16.304;2023-04-22T10:18:18;99069.47;;;18.00;50.79
69855;BME280;57146;48.140;16.304;2023-04-22T10:20:47;99059.69;;;18.04;51.07
69855;BME280;57146;48.140;16.304;2023-04-22T10:23:20;99057.44;;;18.06;49.50
69855;BME280;57146;48.140;16.304;2023-04-22T10:25:51;99059.38;;;18.09;48.86
69855;BME280;57146;48.140;16.304;2023-04-22T10:28:21;99052.53;;;18.08;49.49
69855;BME280;57146;48.140;16.304;2023-04-22T10:30:48;99043.78;;;18.07;49.13
69855;BME280;57146;48.140;16.304;2023-04-22T10:36:20;99044.28;;;18.16;49.67
69855;BME280;57146;48.140;16.304;2023-04-22T10:41:29;99047.13;;;18.27;49.48
69855;BME280;57146;48.140;16.304;2023-04-22T10:43:57;99043.69;;;18.27;49.03
69855;BME280;57146;48.140;16.304;2023-04-22T10:48:58;99049.78;;;18.27;48.79
69855;BME280;57146;48.140;16.304;2023-04-22T10:51:46;99049.09;;;18.30;49.90
69855;BME280;57146;48.140;16.304;2023-04-22T10:57:07;99041.91;;;18.34;48.16
69855;BME280;57146;48.140;16.304;2023-04-22T10:59:41;99031.97;;;18.31;48.33
69855;BME280;57146;48.140;16.304;2023-04-22T11:02:10;99030.50;;;18.34;48.85
69855;BME280;57146;48.140;16.304;2023-04-22T11:04:39;99026.75;;;18.38;48.83
69855;BME280;57146;48.140;16.304;2023-04-22T11:12:50;99026.91;;;18.49;47.79
69855;BME280;57146;48.140;16.304;2023-04-22T11:15:18;99020.41;;;18.47;47.85
69855;BME280;57146;48.140;16.304;2023-04-22T11:17:51;99013.59;;;18.49;47.86
69855;BME280;57146;48.140;16.304;2023-04-22T11:20:19;99019.34;;;18.51;47.10
69855;BME280;57146;48.140;16.304;2023-04-22T11:22:52;99020.91;;;18.56;46.60
69855;BME280;57146;48.140;16.304;2023-04-22T11:25:21;99007.91;;;18.51;46.75
69855;BME280;57146;48.140;16.304;2023-04-22T11:27:48;99017.91;;;18.57;46.96
69855;BME280;57146;48.140;16.304;2023-04-22T11:30:17;99006.16;;;18.62;45.77
69855;BME280;57146;48.140;16.304;2023-04-22T11:32:47;99009.22;;;18.64;45.10
69855;BME280;57146;48.140;16.304;2023-04-22T11:35:20;99010.03;;;18.64;45.72
69855;BME280;57146;48.140;16.304;2023-04-22T11:37:50;98995.13;;;18.63;45.36
69855;BME280;57146;48.140;16.304;2023-04-22T11:40:21;98997.91;;;18.71;45.78
69855;BME280;57146;48.140;16.304;2023-04-22T11:43:00;99005.69;;;18.79;45.39
69855;BME280;57146;48.140;16.304;2023-04-22T11:45:29;99003.44;;;18.85;45.17
69855;BME280;57146;48.140;16.304;2023-04-22T11:47:56;98996.59;;;18.84;44.83
69855;BME280;57146;48.140;16.304;2023-04-22T11:50:29;99009.16;;;18.83;44.80
69855;BME280;57146;48.140;16.304;2023-04-22T11:55:26;98996.69;;;18.91;45.22
69855;BME280;57146;48.140;16.304;2023-04-22T12:03:29;98998.16;;;19.19;44.70
69855;BME280;57146;48.140;16.304;2023-04-22T12:06:02;98992.38;;;19.13;44.03
69855;BME280;57146;48.140;16.304;2023-04-22T12:08:30;98987.00;;;19.09;44.24
69855;BME280;57146;48.140;16.304;2023-04-22T12:10:59;98989.31;;;19.11;44.17
69855;BME280;57146;48.140;16.304;2023-04-22T12:13:32;98987.03;;;19.13;43.96
69855;BME280;57146;48.140;16.304;2023-04-22T12:16:02;98990.44;;;19.10;43.38
69855;BME280;57146;48.140;16.304;2023-04-22T12:18:32;98973.22;;;19.04;44.11
69855;BME280;57146;48.140;16.304;2023-04-22T12:23:42;98974.75;;;19.05;43.68
69855;BME280;57146;48.140;16.304;2023-04-22T12:26:10;98976.69;;;19.08;43.90
69855;BME280;57146;48.140;16.304;2023-04-22T12:28:39;98974.13;;;19.15;43.89
69855;BME280;57146;48.140;16.304;2023-04-22T12:31:06;98978.03;;;19.25;43.82
69855;BME280;57146;48.140;16.304;2023-04-22T12:33:34;98973.09;;;19.27;43.30
69855;BME280;57146;48.140;16.304;2023-04-22T12:36:03;98965.47;;;19.25;42.98
69855;BME280;57146;48.140;16.304;2023-04-22T12:38:30;98959.72;;;19.23;43.14
69855;BME280;57146;48.140;16.304;2023-04-22T12:40:57;98965.81;;;19.24;43.58
69855;BME280;57146;48.140;16.304;2023-04-22T12:43:25;98964.38;;;19.30;43.00
69855;BME280;57146;48.140;16.304;2023-04-22T12:45:51;98968.22;;;19.32;43.59
69855;BME280;57146;48.140;16.304;2023-04-22T12:48:18;98961.78;;;19.37;43.40
69855;BME280;57146;48.140;16.304;2023-04-22T12:50:45;98951.91;;;19.41;44.45
69855;BME280;57146;48.140;16.304;2023-04-22T12:53:12;98949.72;;;19.50;43.53
69855;BME280;57146;48.140;16.304;2023-04-22T12:55:39;98952.06;;;19.59;42.51
69855;BME280;57146;48.140;16.304;2023-04-22T12:58:05;98960.03;;;19.55;41.72
69855;BME280;57146;48.140;16.304;2023-04-22T13:00:33;98949.25;;;19.45;41.39
69855;BME280;57146;48.140;16.304;2023-04-22T13:03:00;98945.75;;;19.37;41.72
69855;BME280;57146;48.140;16.304;2023-04-22T13:05:27;98944.22;;;19.36;41.73
69855;BME280;57146;48.140;16.304;2023-04-22T13:07:54;98938.44;;;19.30;41.86
69855;BME280;57146;48.140;16.304;2023-04-22T13:10:33;98941.13;;;19.30;41.40
69855;BME280;57146;48.140;16.304;2023-04-22T13:12:59;98942.63;;;19.31;42.25
69855;BME280;57146;48.140;16.304;2023-04-22T13:15:42;98935.03;;;19.33;42.57
69855;BME280;57146;48.140;16.304;2023-04-22T13:18:09;98937.00;;;19.36;43.51
69855;BME280;57146;48.140;16.304;2023-04-22T13:20:36;98929.75;;;19.37;42.02
69855;BME280;57146;48.140;16.304;2023-04-22T13:23:03;98937.00;;;19.36;42.22
69855;BME280;57146;48.140;16.304;2023-04-22T13:25:30;98932.50;;;19.44;41.59
69855;BME280;57146;48.140;16.304;2023-04-22T13:27:57;98931.00;;;19.47;41.93
69855;BME280;57146;48.140;16.304;2023-04-22T13:30:24;98914.28;;;19.53;41.14
69855;BME280;57146;48.140;16.304;2023-04-22T13:32:51;98919.59;;;19.50;41.59
69855;BME280;57146;48.140;16.304;2023-04-22T13:35:18;98927.56;;;19.46;41.37